createdAt,value
2018-07-12T00:00:14.932Z,25.70
2018-07-12T00:02:48.159Z,28.53
2018-07-12T00:05:21.586Z,28.97
2018-07-12T00:07:54.836Z,31.97
2018-07-12T00:10:28.481Z,26.80
2018-07-12T00:13:01.826Z,28.47
2018-07-12T00:15:35.097Z,30.27
2018-07-12T00:18:08.534Z,30.80
2018-07-12T00:20:41.967Z,34.03
2018-07-12T00:23:15.410Z,28.20
2018-07-12T00:25:48.850Z,30.23
2018-07-12T00:28:22.322Z,31.20
2018-07-12T00:30:55.595Z,28.37
2018-07-12T00:33:29.033Z,28.67
2018-07-12T00:36:02.430Z,29.73
2018-07-12T00:38:35.682Z,26.77
2018-07-12T00:41:08.942Z,30.97
2018-07-12T00:43:42.269Z,36.63
2018-07-12T00:46:15.525Z,32.50
2018-07-12T00:48:48.803Z,35.20
2018-07-12T00:51:22.031Z,32.07
2018-07-12T00:53:55.481Z,40.20
2018-07-12T00:56:28.787Z,38.97
2018-07-12T00:59:02.195Z,37.77
2018-07-12T01:01:35.477Z,41.33
2018-07-12T01:04:08.874Z,40.30
2018-07-12T01:06:42.234Z,39.63
2018-07-12T01:09:15.734Z,44.33
2018-07-12T01:11:49.053Z,37.13
2018-07-12T01:14:22.374Z,43.13
2018-07-12T01:16:55.591Z,41.40
2018-07-12T01:19:29.004Z,39.33
2018-07-12T01:22:02.340Z,43.07
2018-07-12T01:24:35.687Z,36.80
2018-07-12T01:27:09.053Z,38.43
2018-07-12T01:29:42.322Z,43.17
2018-07-12T01:32:15.614Z,44.20
2018-07-12T01:34:48.901Z,43.27
2018-07-12T01:37:22.308Z,39.40
2018-07-12T01:39:55.729Z,39.77
2018-07-12T01:42:29.087Z,41.80
2018-07-12T01:45:02.367Z,46.17
2018-07-12T01:47:35.668Z,44.90
2018-07-12T01:50:09.046Z,41.33
2018-07-12T01:52:42.390Z,51.40
2018-07-12T01:55:15.783Z,68.17
2018-07-12T01:57:49.051Z,69.03
2018-07-12T02:00:22.338Z,55.77
2018-07-12T02:02:55.606Z,73.67
2018-07-12T02:05:28.919Z,71.60
2018-07-12T02:08:02.396Z,64.77
2018-07-12T02:10:35.798Z,54.30
2018-07-12T02:13:09.125Z,62.33
2018-07-12T02:15:42.442Z,58.70
2018-07-12T02:18:15.838Z,73.37
2018-07-12T02:20:49.235Z,65.13
2018-07-12T02:23:22.570Z,48.33
2018-07-12T02:25:56.245Z,39.50
2018-07-12T02:28:29.641Z,63.77
2018-07-12T02:31:03.072Z,46.57
2018-07-12T02:33:36.475Z,58.37
2018-07-12T02:36:09.811Z,52.27
2018-07-12T02:38:43.235Z,45.97
2018-07-12T02:41:16.579Z,37.13
2018-07-12T02:43:50.044Z,48.70
2018-07-12T02:46:23.458Z,38.53
2018-07-12T02:48:56.882Z,35.47
2018-07-12T02:51:30.251Z,53.53
2018-07-12T02:54:03.483Z,39.37
2018-07-12T02:56:36.794Z,38.87
2018-07-12T02:59:10.114Z,35.63
2018-07-12T03:01:43.518Z,35.60
2018-07-12T03:04:16.764Z,38.20
2018-07-12T03:06:50.363Z,41.23
2018-07-12T03:09:23.783Z,40.53
2018-07-12T03:11:57.192Z,37.73
2018-07-12T03:14:30.450Z,40.43
2018-07-12T03:17:03.863Z,38.17
2018-07-12T03:19:37.125Z,33.80
2018-07-12T03:22:10.518Z,36.63
2018-07-12T03:24:43.803Z,33.40
2018-07-12T03:27:17.408Z,35.17
2018-07-12T03:29:50.785Z,34.67
2018-07-12T03:32:24.062Z,33.50
2018-07-12T03:34:57.736Z,36.23
2018-07-12T03:37:31.095Z,37.60
2018-07-12T03:40:04.386Z,35.03
2018-07-12T03:42:37.729Z,35.13
2018-07-12T03:45:11.525Z,40.00
2018-07-12T03:47:44.861Z,37.47
2018-07-12T03:50:18.311Z,28.43
2018-07-12T03:52:51.573Z,38.23
2018-07-12T03:55:25.087Z,33.93
2018-07-12T03:57:58.331Z,32.17
2018-07-12T04:00:31.898Z,38.67
2018-07-12T04:03:05.291Z,37.37
2018-07-12T04:05:38.606Z,39.97
2018-07-12T04:08:11.958Z,41.20
2018-07-12T04:10:45.227Z,42.62
2018-07-12T04:13:18.623Z,37.67
2018-07-12T04:15:51.865Z,35.30
2018-07-12T04:18:25.267Z,35.73
2018-07-12T04:20:58.613Z,35.90
2018-07-12T04:23:31.890Z,32.27
2018-07-12T04:26:05.219Z,37.00
2018-07-12T04:28:38.497Z,35.43
2018-07-12T04:31:11.945Z,43.57
2018-07-12T04:33:45.182Z,39.73
2018-07-12T04:36:18.439Z,55.00
2018-07-12T04:38:51.801Z,44.47
2018-07-12T04:41:25.254Z,59.90
2018-07-12T04:43:58.518Z,60.03
2018-07-12T04:46:31.805Z,43.20
2018-07-12T04:49:05.208Z,54.33
2018-07-12T04:51:38.738Z,60.70
2018-07-12T04:54:12.190Z,45.40
2018-07-12T04:56:45.456Z,51.43
2018-07-12T04:59:19.590Z,42.07
2018-07-12T05:01:53.085Z,46.67
2018-07-12T05:04:26.653Z,43.57
2018-07-12T05:07:00.010Z,39.73
2018-07-12T05:09:33.230Z,44.87
2018-07-12T05:12:06.577Z,46.03
2018-07-12T05:14:39.766Z,46.13
2018-07-12T05:17:13.325Z,45.73
2018-07-12T05:19:46.899Z,42.47
2018-07-12T05:22:20.289Z,41.87
2018-07-12T05:24:53.618Z,41.13
2018-07-12T05:27:26.938Z,50.53
2018-07-12T05:30:00.364Z,45.33
2018-07-12T05:32:33.836Z,44.10
2018-07-12T05:35:07.190Z,43.50
2018-07-12T05:37:41.518Z,42.77
2018-07-12T05:40:15.853Z,42.50
2018-07-12T05:42:50.187Z,44.00
2018-07-12T05:45:24.498Z,47.60
2018-07-12T05:47:58.794Z,44.40
2018-07-12T05:50:33.369Z,46.17
2018-07-12T05:53:07.566Z,44.17
2018-07-12T05:55:42.211Z,44.73
2018-07-12T05:58:16.422Z,45.00
2018-07-12T06:00:50.909Z,49.33
2018-07-12T06:03:25.186Z,50.27
2018-07-12T06:05:59.557Z,53.00
2018-07-12T06:08:33.766Z,48.80
2018-07-12T06:11:08.050Z,51.57
2018-07-12T06:13:42.474Z,56.53
2018-07-12T06:16:16.886Z,49.50
2018-07-12T06:18:51.102Z,54.27
2018-07-12T06:21:25.462Z,54.23
2018-07-12T06:23:59.662Z,58.20
2018-07-12T06:26:33.970Z,62.93
2018-07-12T06:29:08.403Z,56.37
2018-07-12T06:31:42.866Z,60.17
2018-07-12T06:34:17.048Z,91.57
2018-07-12T06:36:51.413Z,65.43
2018-07-12T06:39:25.555Z,58.73
2018-07-12T06:41:59.841Z,60.33
2018-07-12T06:44:34.137Z,53.57
2018-07-12T06:47:08.564Z,52.20
2018-07-12T06:49:42.854Z,53.97
2018-07-12T06:52:17.006Z,48.67
2018-07-12T06:54:51.277Z,47.13
2018-07-12T06:57:25.467Z,45.53
2018-07-12T06:59:59.772Z,41.77
2018-07-12T07:02:34.174Z,41.60
2018-07-12T07:05:08.655Z,43.13
2018-07-12T07:07:42.867Z,36.27
2018-07-12T07:10:17.254Z,41.70
2018-07-12T07:12:51.540Z,37.27
2018-07-12T07:15:25.839Z,39.57
2018-07-12T07:18:00.255Z,29.70
2018-07-12T07:20:34.571Z,31.43
2018-07-12T07:23:08.927Z,29.20
2018-07-12T07:25:43.415Z,31.17
2018-07-12T07:28:17.582Z,20.73
2018-07-12T07:30:51.914Z,26.80
2018-07-12T07:33:26.455Z,26.37
2018-07-12T07:36:00.698Z,27.73
2018-07-12T07:38:34.930Z,23.80
2018-07-12T07:41:09.238Z,26.23
2018-07-12T07:43:43.759Z,21.83
2018-07-12T07:46:17.905Z,25.30
2018-07-12T07:48:52.225Z,25.73
2018-07-12T07:51:26.580Z,25.27
2018-07-12T07:54:00.918Z,23.60
2018-07-12T07:56:35.461Z,18.07
2018-07-12T07:59:09.799Z,22.40
2018-07-12T08:01:44.180Z,19.07
2018-07-12T08:04:18.499Z,21.27
2018-07-12T08:06:52.961Z,22.67
2018-07-12T08:09:27.302Z,24.73
2018-07-12T08:12:01.660Z,25.33
2018-07-12T08:14:36.061Z,22.47
2018-07-12T08:17:10.458Z,17.63
2018-07-12T08:19:44.757Z,20.30
2018-07-12T08:22:19.108Z,22.07
2018-07-12T08:24:53.415Z,18.17
2018-07-12T08:27:27.686Z,25.57
2018-07-12T08:30:01.991Z,18.57
2018-07-12T08:32:36.223Z,17.30
2018-07-12T08:35:10.499Z,19.90
2018-07-12T08:37:44.900Z,18.53
2018-07-12T08:40:19.094Z,15.33
2018-07-12T08:42:53.440Z,16.23
2018-07-12T08:45:27.787Z,21.90
2018-07-12T08:48:02.145Z,19.17
2018-07-12T08:50:36.602Z,13.27
2018-07-12T08:53:10.935Z,16.03
2018-07-12T08:55:45.090Z,13.97
2018-07-12T08:58:19.282Z,17.70
2018-07-12T09:00:53.534Z,14.67
2018-07-12T09:03:27.938Z,14.13
2018-07-12T09:06:02.318Z,13.13
2018-07-12T09:08:36.526Z,16.17
2018-07-12T09:11:10.650Z,15.53
2018-07-12T09:13:44.846Z,9.60
2018-07-12T09:16:19.192Z,11.83
2018-07-12T09:18:53.501Z,12.40
2018-07-12T09:21:27.892Z,10.53
2018-07-12T09:24:02.195Z,9.87
2018-07-12T09:26:36.349Z,10.47
2018-07-12T09:29:10.737Z,12.33
2018-07-12T09:31:44.911Z,10.37
2018-07-12T09:34:19.210Z,10.80
2018-07-12T09:36:53.575Z,10.53
2018-07-12T09:39:27.872Z,10.87
2018-07-12T09:42:02.139Z,7.70
2018-07-12T09:44:36.474Z,10.63
2018-07-12T09:47:10.939Z,7.90
2018-07-12T09:49:45.209Z,7.53
2018-07-12T09:52:25.095Z,7.83
2018-07-12T09:54:59.365Z,16.93
2018-07-12T09:57:44.989Z,11.33
2018-07-12T10:00:23.540Z,6.03
2018-07-12T10:03:03.379Z,7.27
2018-07-12T10:05:42.869Z,9.10
2018-07-12T10:08:22.693Z,6.43
2018-07-12T10:11:02.210Z,7.50
2018-07-12T10:13:41.638Z,6.30
2018-07-12T10:16:21.241Z,7.73
2018-07-12T10:18:55.410Z,8.00
2018-07-12T10:21:30.167Z,15.67
2018-07-12T10:24:04.702Z,6.27
2018-07-12T10:26:38.925Z,6.50
2018-07-12T10:29:13.202Z,7.03
2018-07-12T10:31:47.474Z,9.13
2018-07-12T10:34:21.731Z,6.17
2018-07-12T10:36:56.050Z,7.13
2018-07-12T10:39:30.350Z,8.17
2018-07-12T10:42:04.614Z,6.33
2018-07-12T10:44:38.926Z,8.50
2018-07-12T10:47:13.197Z,6.90
2018-07-12T10:49:47.517Z,10.13
2018-07-12T10:52:21.786Z,6.10
2018-07-12T10:54:56.130Z,3.97
2018-07-12T10:57:30.357Z,6.53
2018-07-12T11:00:07.014Z,8.80
2018-07-12T11:02:41.243Z,5.53
2018-07-12T11:05:15.557Z,5.53
2018-07-12T11:07:50.050Z,5.63
2018-07-12T11:10:24.395Z,6.30
2018-07-12T11:13:15.890Z,7.60
2018-07-12T11:15:50.162Z,5.53
2018-07-12T11:18:24.449Z,6.23
2018-07-12T11:20:58.723Z,7.40
2018-07-12T11:23:33.042Z,4.97
2018-07-12T11:26:07.346Z,4.57
2018-07-12T11:28:42.203Z,5.57
2018-07-12T11:31:16.420Z,6.37
2018-07-12T11:33:51.453Z,5.63
2018-07-12T11:36:25.708Z,7.83
2018-07-12T11:38:59.903Z,4.40
2018-07-12T11:41:34.148Z,6.10
2018-07-12T11:44:08.361Z,5.13
2018-07-12T11:46:42.926Z,4.80
2018-07-12T11:49:17.075Z,7.23
2018-07-12T11:51:51.486Z,6.50
2018-07-12T11:54:25.796Z,9.90
2018-07-12T11:57:00.067Z,5.17
2018-07-12T11:59:34.386Z,6.20
2018-07-12T12:02:08.764Z,3.73
2018-07-12T12:04:43.064Z,9.67
2018-07-12T12:07:17.457Z,5.87
2018-07-12T12:09:51.730Z,4.37
2018-07-12T12:12:26.307Z,5.53
2018-07-12T12:15:00.893Z,3.10
2018-07-12T12:17:35.216Z,3.90
2018-07-12T12:20:09.521Z,3.60
2018-07-12T12:22:43.704Z,6.80
2018-07-12T12:25:18.107Z,3.37
2018-07-12T12:27:52.539Z,9.10
2018-07-12T12:30:26.877Z,5.53
2018-07-12T12:33:01.118Z,6.33
2018-07-12T12:35:35.586Z,5.33
2018-07-12T12:38:09.898Z,3.47
2018-07-12T12:40:44.074Z,4.80
2018-07-12T12:43:18.461Z,5.30
2018-07-12T12:45:52.750Z,4.40
2018-07-12T12:48:26.956Z,10.53
2018-07-12T12:51:01.274Z,5.80
2018-07-12T12:53:35.537Z,5.47
2018-07-12T12:56:09.778Z,3.10
2018-07-12T12:58:44.042Z,3.97
2018-07-12T13:01:18.322Z,4.63
2018-07-12T13:03:52.494Z,4.53
2018-07-12T13:06:26.687Z,3.40
2018-07-12T13:09:01.053Z,4.23
2018-07-12T13:11:35.323Z,3.97
2018-07-12T13:14:09.502Z,3.27
2018-07-12T13:16:43.790Z,3.10
2018-07-12T13:19:18.065Z,3.87
2018-07-12T13:21:52.494Z,4.10
2018-07-12T13:24:26.807Z,8.67
2018-07-12T13:27:01.109Z,7.50
2018-07-12T13:29:35.407Z,4.20
2018-07-12T13:32:09.826Z,5.63
2018-07-12T13:34:44.280Z,5.53
2018-07-12T13:37:18.549Z,3.63
2018-07-12T13:39:52.858Z,4.30
2018-07-12T13:42:27.190Z,4.33
2018-07-12T13:45:01.428Z,5.00
2018-07-12T13:47:35.727Z,3.33
2018-07-12T13:50:10.040Z,6.00
2018-07-12T13:52:44.425Z,3.43
2018-07-12T13:55:18.622Z,6.23
2018-07-12T13:57:52.830Z,4.87
2018-07-12T14:00:27.129Z,4.93
2018-07-12T14:03:01.558Z,6.83
2018-07-12T14:05:35.901Z,5.83
2018-07-12T14:08:10.146Z,8.63
2018-07-12T14:10:44.469Z,5.97
2018-07-12T14:13:18.818Z,10.77
2018-07-12T14:15:53.092Z,5.80
2018-07-12T14:18:27.365Z,6.70
2018-07-12T14:21:01.546Z,7.20
2018-07-12T14:23:35.855Z,5.67
2018-07-12T14:26:10.338Z,5.67
2018-07-12T14:28:44.775Z,8.20
2018-07-12T14:31:19.077Z,7.77
2018-07-12T14:33:53.297Z,5.60
2018-07-12T14:36:27.590Z,6.77
2018-07-12T14:39:01.774Z,4.27
2018-07-12T14:41:36.357Z,13.40
2018-07-12T14:44:10.530Z,7.80
2018-07-12T14:46:44.826Z,6.97
2018-07-12T14:49:19.314Z,5.67
2018-07-12T14:51:53.570Z,7.17
2018-07-12T14:54:27.909Z,6.93
2018-07-12T14:57:02.184Z,4.43
2018-07-12T14:59:37.095Z,5.47
2018-07-12T15:02:11.273Z,6.57
2018-07-12T15:04:45.452Z,5.60
2018-07-12T15:07:19.749Z,5.13
2018-07-12T15:09:54.047Z,6.27
2018-07-12T15:12:28.455Z,9.80
2018-07-12T15:15:02.760Z,9.33
2018-07-12T15:17:37.055Z,7.77
2018-07-12T15:20:11.555Z,9.07
2018-07-12T15:22:45.934Z,8.63
2018-07-12T15:25:20.154Z,11.33
2018-07-12T15:27:54.512Z,7.13
2018-07-12T15:30:28.601Z,7.57
2018-07-12T15:33:02.838Z,7.70
2018-07-12T15:35:37.106Z,11.00
2018-07-12T15:38:11.386Z,7.57
2018-07-12T15:40:45.678Z,6.97
2018-07-12T15:43:20.023Z,7.73
2018-07-12T15:45:54.342Z,6.07
2018-07-12T15:48:28.642Z,5.07
2018-07-12T15:51:02.652Z,6.20
2018-07-12T15:53:37.363Z,11.93
2018-07-12T15:56:11.541Z,5.47
2018-07-12T15:58:45.859Z,6.87
2018-07-12T16:01:20.161Z,6.67
2018-07-12T16:03:54.413Z,5.97
2018-07-12T16:06:28.718Z,5.80
2018-07-12T16:09:03.139Z,5.60
2018-07-12T16:11:37.587Z,8.00
2018-07-12T16:14:11.861Z,4.87
2018-07-12T16:16:46.022Z,4.10
2018-07-12T16:19:20.471Z,5.70
2018-07-12T16:21:54.746Z,5.77
2018-07-12T16:24:28.998Z,4.13
2018-07-12T16:27:03.384Z,7.77
2018-07-12T16:29:37.685Z,3.23
2018-07-12T16:32:11.959Z,3.60
2018-07-12T16:34:46.375Z,5.33
2018-07-12T16:37:20.750Z,4.80
2018-07-12T16:39:54.873Z,3.43
2018-07-12T16:42:29.085Z,3.30
2018-07-12T16:45:03.351Z,5.10
2018-07-12T16:47:37.762Z,7.67
2018-07-12T16:50:12.083Z,3.10
2018-07-12T16:52:46.405Z,7.07
2018-07-12T16:55:20.614Z,3.13
2018-07-12T16:57:54.889Z,3.63
2018-07-12T17:00:29.328Z,3.83
2018-07-12T17:03:03.602Z,5.60
2018-07-12T17:05:37.844Z,5.00
2018-07-12T17:08:12.218Z,2.80
2018-07-12T17:10:46.525Z,6.40
2018-07-12T17:13:20.865Z,3.10
2018-07-12T17:15:55.214Z,2.67
2018-07-12T17:18:29.590Z,4.70
2018-07-12T17:21:03.854Z,4.70
2018-07-12T17:23:38.162Z,5.63
2018-07-12T17:26:12.389Z,4.23
2018-07-12T17:28:46.718Z,4.20
2018-07-12T17:31:21.016Z,3.33
2018-07-12T17:33:55.435Z,2.93
2018-07-12T17:36:29.724Z,6.47
2018-07-12T17:39:05.294Z,5.83
2018-07-12T17:41:39.581Z,5.30
2018-07-12T17:44:13.818Z,3.60
2018-07-12T17:46:48.098Z,4.13
2018-07-12T17:49:22.525Z,4.37
2018-07-12T17:51:56.921Z,5.97
2018-07-12T17:54:31.194Z,5.93
2018-07-12T17:57:05.694Z,5.33
2018-07-12T17:59:39.902Z,5.40
2018-07-12T18:02:14.182Z,3.30
2018-07-12T18:04:48.407Z,3.47
2018-07-12T18:07:22.819Z,3.57
2018-07-12T18:09:56.983Z,4.50
2018-07-12T18:12:31.254Z,6.53
2018-07-12T18:15:05.550Z,3.67
2018-07-12T18:17:39.863Z,4.23
2018-07-12T18:20:14.197Z,5.10
2018-07-12T18:22:48.627Z,9.37
2018-07-12T18:25:23.081Z,4.90
2018-07-12T18:27:57.313Z,7.67
2018-07-12T18:30:31.561Z,6.70
2018-07-12T18:33:06.438Z,6.43
2018-07-12T18:35:40.749Z,6.43
2018-07-12T18:38:15.038Z,3.93
2018-07-12T18:40:49.254Z,4.60
2018-07-12T18:43:23.478Z,6.27
2018-07-12T18:45:58.193Z,4.57
2018-07-12T18:48:32.498Z,4.00
2018-07-12T18:51:06.848Z,4.37
2018-07-12T18:53:41.191Z,6.23
2018-07-12T18:56:15.515Z,7.30
2018-07-12T18:58:49.911Z,10.77
2018-07-12T19:01:24.223Z,4.93
2018-07-12T19:03:58.455Z,4.67
2018-07-12T19:06:32.767Z,5.87
2018-07-12T19:09:08.063Z,7.27
2018-07-12T19:11:42.454Z,4.57
2018-07-12T19:14:16.750Z,6.87
2018-07-12T19:16:51.062Z,5.20
2018-07-12T19:19:25.358Z,7.83
2018-07-12T19:21:59.697Z,8.90
2018-07-12T19:24:33.913Z,8.23
2018-07-12T19:27:08.225Z,8.87
2018-07-12T19:29:42.554Z,8.53
2018-07-12T19:32:16.933Z,5.60
2018-07-12T19:34:51.307Z,6.37
2018-07-12T19:37:25.638Z,7.17
2018-07-12T19:40:00.157Z,7.60
2018-07-12T19:42:34.428Z,6.67
2018-07-12T19:45:08.765Z,6.83
2018-07-12T19:47:43.093Z,6.50
2018-07-12T19:50:17.282Z,9.90
2018-07-12T19:52:51.741Z,7.10
2018-07-12T19:55:26.049Z,6.40
2018-07-12T19:58:00.261Z,3.90
2018-07-12T20:00:35.446Z,6.50
2018-07-12T20:03:09.873Z,7.03
2018-07-12T20:05:44.181Z,5.90
2018-07-12T20:08:18.817Z,5.07
2018-07-12T20:10:53.021Z,5.27
2018-07-12T20:13:27.366Z,6.00
2018-07-12T20:16:01.731Z,5.30
2018-07-12T20:18:36.054Z,4.97
2018-07-12T20:21:10.351Z,7.83
2018-07-12T20:23:44.710Z,6.53
2018-07-12T20:26:19.039Z,4.70
2018-07-12T20:28:53.550Z,5.83
2018-07-12T20:31:27.754Z,6.83
2018-07-12T20:34:01.970Z,6.23
2018-07-12T20:36:36.111Z,7.60
2018-07-12T20:39:10.513Z,6.27
2018-07-12T20:41:44.693Z,8.80
2018-07-12T20:44:18.979Z,6.17
2018-07-12T20:46:53.163Z,8.10
2018-07-12T20:49:27.573Z,6.37
2018-07-12T20:52:01.918Z,5.37
2018-07-12T20:54:36.253Z,9.60
2018-07-12T20:57:10.573Z,7.50
2018-07-12T20:59:44.878Z,5.97
2018-07-12T21:02:19.147Z,5.77
2018-07-12T21:04:53.514Z,7.50
2018-07-12T21:07:27.777Z,7.20
2018-07-12T21:10:02.111Z,6.10
2018-07-12T21:12:36.387Z,6.07
2018-07-12T21:15:10.752Z,5.83
2018-07-12T21:17:45.054Z,8.13
2018-07-12T21:20:22.298Z,5.67
2018-07-12T21:22:56.804Z,8.47
2018-07-12T21:25:31.038Z,11.93
2018-07-12T21:28:05.594Z,8.77
2018-07-12T21:30:39.943Z,8.40
2018-07-12T21:33:14.306Z,9.50
2018-07-12T21:35:48.599Z,9.00
2018-07-12T21:38:22.958Z,8.87
2018-07-12T21:40:57.338Z,6.17
2018-07-12T21:43:31.625Z,9.73
2018-07-12T21:46:06.250Z,11.57
2018-07-12T21:48:40.441Z,10.53
2018-07-12T21:51:14.728Z,11.40
2018-07-12T21:53:48.989Z,10.63
2018-07-12T21:56:23.198Z,12.53
2018-07-12T21:58:57.413Z,9.17
2018-07-12T22:01:31.794Z,11.10
2018-07-12T22:04:06.051Z,8.47
2018-07-12T22:07:55.030Z,9.53
2018-07-12T22:10:29.318Z,9.10
2018-07-12T22:13:03.646Z,9.27
2018-07-12T22:15:37.955Z,10.73
2018-07-12T22:18:12.140Z,8.10
2018-07-12T22:20:46.517Z,8.73
2018-07-12T22:23:20.754Z,6.87
2018-07-12T22:25:54.745Z,9.70
2018-07-12T22:28:29.002Z,10.23
2018-07-12T22:31:03.229Z,8.33
2018-07-12T22:33:37.566Z,11.77
2018-07-12T22:36:11.927Z,8.57
2018-07-12T22:38:46.209Z,8.63
2018-07-12T22:41:20.500Z,7.70
2018-07-12T22:43:54.706Z,9.80
2018-07-12T22:46:29.018Z,8.77
2018-07-12T22:49:03.353Z,7.80
2018-07-12T22:51:37.494Z,8.70
2018-07-12T22:54:11.727Z,10.03
2018-07-12T22:56:45.874Z,9.73
2018-07-12T22:59:20.316Z,11.03
2018-07-12T23:01:54.498Z,12.97
2018-07-12T23:04:28.972Z,10.53
2018-07-12T23:07:03.384Z,9.33
2018-07-12T23:09:37.688Z,10.13
2018-07-12T23:12:11.991Z,10.40
2018-07-12T23:14:46.388Z,8.47
2018-07-12T23:17:20.909Z,8.67
2018-07-12T23:19:55.250Z,10.93
2018-07-12T23:22:29.585Z,10.13
2018-07-12T23:25:03.879Z,13.37
2018-07-12T23:27:38.253Z,8.77
2018-07-12T23:30:12.591Z,7.87
2018-07-12T23:32:46.973Z,11.60
2018-07-12T23:35:21.233Z,11.63
2018-07-12T23:37:55.665Z,8.17
2018-07-12T23:40:30.047Z,8.67
2018-07-12T23:43:04.356Z,12.47
2018-07-12T23:45:38.735Z,8.67
2018-07-12T23:48:13.034Z,12.47
2018-07-12T23:50:47.407Z,9.33
2018-07-12T23:53:21.718Z,11.77
2018-07-12T23:55:56.039Z,9.87
2018-07-12T23:58:30.323Z,12.23
